Time;durP1;ratioP1;P1;durP2;ratioP2;P2;SDS_P1;SDS_P2;PMS_P1;PMS_P2;Temp;Humidity;BMP_temperature;BMP_pressure;BME280_temperature;BME280_humidity;BME280_pressure;Samples;Min_cycle;Max_cycle;Signal;HPM_P1;HPM_P2
2022/07/28 00:06:48;;;;;;;9.57;7.00;;;;;;;22.31;100.00;93071.34;5062119;27;1333326;-75
2022/07/28 00:09:14;;;;;;;9.05;6.78;;;;;;;22.11;100.00;93064.59;5106918;28;20356;-75
2022/07/28 00:11:41;;;;;;;10.02;7.05;;;;;;;21.62;100.00;93062.91;5106794;28;20052;-76
2022/07/28 00:14:09;;;;;;;9.88;7.70;;;;;;;21.17;100.00;93058.00;5116119;28;20050;-75
2022/07/28 00:16:36;;;;;;;9.68;7.57;;;;;;;21.18;100.00;93035.25;5110896;28;20051;-75
2022/07/28 00:19:03;;;;;;;8.18;6.95;;;;;;;20.69;100.00;93032.66;5106421;28;20105;-75
2022/07/28 00:21:30;;;;;;;9.30;7.43;;;;;;;20.66;100.00;93035.81;5106635;28;20048;-75
2022/07/28 00:23:58;;;;;;;10.95;8.70;;;;;;;20.82;100.00;93008.50;5106341;28;20089;-75
2022/07/28 00:26:25;;;;;;;11.38;8.07;;;;;;;20.72;100.00;93002.59;5106488;28;20169;-75
2022/07/28 00:28:52;;;;;;;9.63;8.05;;;;;;;20.62;100.00;92982.63;5111441;28;20036;-75
2022/07/28 00:31:18;;;;;;;11.15;7.65;;;;;;;20.92;100.00;93002.41;5115665;28;20051;-75
2022/07/28 00:33:45;;;;;;;12.50;8.73;;;;;;;21.03;100.00;93010.91;5120673;28;20039;-75
2022/07/28 00:36:12;;;;;;;11.95;7.90;;;;;;;21.03;100.00;93005.69;5106249;28;20040;-75
2022/07/28 00:38:40;;;;;;;12.15;8.23;;;;;;;21.17;100.00;93007.59;5106304;28;20144;-75
2022/07/28 00:41:11;;;;;;;11.60;7.88;;;;;;;21.20;100.00;93014.88;5124795;28;20138;-75
2022/07/28 00:43:38;;;;;;;9.77;7.35;;;;;;;21.29;100.00;93010.56;5114712;28;20047;-75
2022/07/28 00:46:05;;;;;;;9.65;7.45;;;;;;;21.37;100.00;93022.22;5108039;28;20458;-75
2022/07/28 00:48:32;;;;;;;12.18;8.00;;;;;;;21.43;100.00;93018.47;5105521;28;20446;-75
2022/07/28 00:50:58;;;;;;;9.63;7.38;;;;;;;21.40;100.00;93021.66;5104896;28;20497;-75
2022/07/28 00:53:25;;;;;;;11.10;7.97;;;;;;;21.34;100.00;93026.16;5105267;28;20039;-75
2022/07/28 00:55:53;;;;;;;10.23;7.80;;;;;;;21.25;100.00;93040.94;5105020;28;20052;-75
2022/07/28 00:58:21;;;;;;;11.70;7.90;;;;;;;21.30;100.00;93043.47;5104894;28;20055;-75
2022/07/28 01:00:48;;;;;;;9.63;8.07;;;;;;;21.26;100.00;93045.09;5105133;28;20040;-75
2022/07/28 01:06:06;;;;;;;9.95;7.57;;;;;;;21.02;100.00;93064.16;5101264;28;20088;-75
2022/07/28 01:08:44;;;;;;;11.23;7.70;;;;;;;21.06;100.00;93064.41;5091575;28;20131;-75
2022/07/28 01:11:18;;;;;;;10.50;8.13;;;;;;;21.17;100.00;93078.09;5091189;28;20086;-75
2022/07/28 01:13:54;;;;;;;11.07;7.85;;;;;;;21.25;100.00;93087.16;5091129;28;20492;-76
2022/07/28 01:16:21;;;;;;;9.80;7.93;;;;;;;21.30;100.00;93087.88;5091278;28;20099;-76
2022/07/28 01:18:54;;;;;;;10.05;7.60;;;;;;;21.34;100.00;93072.44;5090961;28;20044;-76
2022/07/28 01:21:26;;;;;;;11.73;8.05;;;;;;;21.42;100.00;93082.25;5090948;28;20048;-76
2022/07/28 01:24:18;;;;;;;10.45;7.55;;;;;;;21.38;100.00;93085.72;5091201;28;20138;-76
2022/07/28 01:26:56;;;;;;;8.95;7.38;;;;;;;21.39;100.00;93080.22;5091066;28;20044;-75
2022/07/28 01:30:02;;;;;;;10.00;7.13;;;;;;;21.21;100.00;93047.78;5091106;28;20474;-76
2022/07/28 01:32:35;;;;;;;10.85;8.23;;;;;;;21.36;100.00;93083.38;5091518;28;20036;-76
2022/07/28 01:35:08;;;;;;;11.82;7.45;;;;;;;21.28;100.00;93074.31;5090619;28;20564;-76
2022/07/28 01:37:41;;;;;;;9.35;7.45;;;;;;;21.25;100.00;93079.34;5090987;28;20344;-76
2022/07/28 01:40:11;;;;;;;10.45;7.75;;;;;;;21.26;100.00;93084.28;5090932;28;20101;-76
2022/07/28 01:42:44;;;;;;;10.02;7.53;;;;;;;21.25;100.00;93085.34;5090986;28;20439;-77
2022/07/28 01:45:13;;;;;;;10.23;8.15;;;;;;;21.28;100.00;93089.22;5090971;28;20085;-76
2022/07/28 01:47:44;;;;;;;11.02;8.15;;;;;;;21.27;100.00;93085.03;5090806;28;20138;-77
2022/07/28 01:50:14;;;;;;;10.38;8.02;;;;;;;21.23;100.00;93082.22;5091005;28;20071;-77
2022/07/28 01:52:41;;;;;;;10.45;8.18;;;;;;;21.13;100.00;93079.72;5090984;28;20089;-77
2022/07/28 01:55:10;;;;;;;10.35;7.90;;;;;;;20.93;100.00;93053.56;5090534;28;20545;-77
2022/07/28 01:57:37;;;;;;;10.73;7.93;;;;;;;21.06;100.00;93080.84;5091048;28;20048;-77
2022/07/28 02:00:09;;;;;;;8.85;7.55;;;;;;;21.09;100.00;93087.34;5090463;28;20093;-77
2022/07/28 02:02:37;;;;;;;10.45;7.60;;;;;;;21.08;100.00;93089.19;5090729;28;20492;-77
2022/07/28 02:05:07;;;;;;;10.85;7.90;;;;;;;21.08;100.00;93101.44;5090345;28;20133;-77
2022/07/28 02:07:36;;;;;;;10.38;7.95;;;;;;;21.06;100.00;93091.28;5090543;28;20119;-77
2022/07/28 02:10:04;;;;;;;9.05;7.20;;;;;;;21.11;100.00;93093.06;5090095;28;20047;-76
2022/07/28 02:12:33;;;;;;;11.00;8.05;;;;;;;21.07;100.00;93079.78;5090289;28;20103;-76
2022/07/28 02:15:00;;;;;;;10.88;8.05;;;;;;;21.16;100.00;93084.41;5090244;28;20142;-76
2022/07/28 02:17:31;;;;;;;11.05;8.18;;;;;;;21.14;100.00;93081.25;5089816;28;20510;-77
2022/07/28 02:19:59;;;;;;;9.85;7.90;;;;;;;21.17;100.00;93088.56;5089877;28;20114;-76
2022/07/28 02:22:28;;;;;;;10.18;7.47;;;;;;;21.17;100.00;93088.56;5090093;28;20036;-77
2022/07/28 02:24:55;;;;;;;11.90;8.38;;;;;;;21.17;100.00;93088.56;5089816;28;20093;-77
2022/07/28 02:27:27;;;;;;;11.23;7.88;;;;;;;21.14;100.00;93084.66;5089761;28;20048;-77
2022/07/28 02:30:02;;;;;;;9.75;7.60;;;;;;;21.15;100.00;93091.44;5089881;28;20485;-77
2022/07/28 02:32:36;;;;;;;11.37;8.23;;;;;;;21.16;100.00;93094.84;5090320;28;20036;-78
2022/07/28 02:35:08;;;;;;;9.95;7.57;;;;;;;21.12;100.00;93097.25;5089624;28;20138;-77
2022/07/28 02:37:40;;;;;;;10.55;8.15;;;;;;;21.13;100.00;93106.63;5090192;28;20127;-77
2022/07/28 02:40:12;;;;;;;10.13;7.65;;;;;;;21.04;100.00;93103.84;5089577;28;20044;-76
2022/07/28 02:42:40;;;;;;;9.48;8.05;;;;;;;21.09;100.00;93122.06;5089821;28;20044;-75
2022/07/28 02:45:11;;;;;;;9.48;7.70;;;;;;;21.04;100.00;93124.72;5089365;28;20036;-75
2022/07/28 02:47:44;;;;;;;11.75;8.88;;;;;;;21.01;100.00;93125.28;5090011;28;20044;-75
2022/07/28 02:50:14;;;;;;;11.98;8.73;;;;;;;20.95;100.00;93121.16;5089635;28;20044;-74
2022/07/28 02:52:45;;;;;;;10.57;9.07;;;;;;;20.87;100.00;93116.56;5089634;28;20052;-74
2022/07/28 02:55:15;;;;;;;9.80;8.77;;;;;;;20.76;100.00;93129.69;5089066;28;20217;-73
2022/07/28 02:57:43;;;;;;;13.80;9.93;;;;;;;20.51;100.00;93110.56;5089348;28;20158;-73
2022/07/28 03:00:13;;;;;;;11.02;9.40;;;;;;;20.66;100.00;93132.38;5089481;28;20043;-74
2022/07/28 03:02:42;;;;;;;11.48;9.70;;;;;;;20.59;100.00;93118.88;5089388;28;20401;-75
2022/07/28 03:05:11;;;;;;;14.15;11.15;;;;;;;20.54;100.00;93110.03;5089219;28;20129;-75
2022/07/28 03:07:38;;;;;;;15.43;12.13;;;;;;;20.51;100.00;93100.13;5089069;28;20527;-78
2022/07/28 03:10:06;;;;;;;13.43;11.73;;;;;;;20.52;100.00;93090.47;5088864;28;20094;-77
2022/07/28 03:12:33;;;;;;;16.33;12.80;;;;;;;20.47;100.00;93078.28;5089078;28;20530;-76
2022/07/28 03:15:00;;;;;;;14.95;12.10;;;;;;;20.34;100.00;93044.97;5089179;28;20386;-76
2022/07/28 03:17:27;;;;;;;16.65;13.15;;;;;;;20.18;100.00;93042.50;5089323;28;20516;-76
2022/07/28 03:19:53;;;;;;;18.02;13.60;;;;;;;20.15;100.00;93050.88;5088816;28;20036;-75
2022/07/28 03:22:20;;;;;;;16.25;12.93;;;;;;;20.10;100.00;93046.50;5089056;28;20044;-76
2022/07/28 03:24:50;;;;;;;15.73;12.07;;;;;;;20.09;100.00;93031.88;5088926;28;20085;-75
2022/07/28 03:27:24;;;;;;;14.43;11.90;;;;;;;20.09;100.00;93031.13;5088828;28;20151;-76
2022/07/28 03:29:55;;;;;;;16.80;12.48;;;;;;;19.99;100.00;93005.88;5088422;28;20090;-76
2022/07/28 03:32:25;;;;;;;17.85;12.23;;;;;;;19.98;100.00;93012.16;5088559;28;20122;-76
2022/07/28 03:34:52;;;;;;;14.70;11.90;;;;;;;19.90;100.00;92988.22;5088884;28;20044;-75
2022/07/28 03:37:25;;;;;;;12.98;10.25;;;;;;;19.92;100.00;92989.75;5088542;28;20577;-76
2022/07/28 03:39:56;;;;;;;13.18;10.82;;;;;;;19.79;100.00;92985.94;5088576;28;20063;-76
2022/07/28 03:42:27;;;;;;;11.32;9.00;;;;;;;19.62;100.00;92961.06;5088810;28;20475;-76
2022/07/28 03:44:54;;;;;;;14.30;10.13;;;;;;;19.63;100.00;92965.22;5088747;28;20036;-76
2022/07/28 03:47:22;;;;;;;11.82;9.75;;;;;;;19.59;100.00;92954.56;5088586;28;20052;-77
2022/07/28 03:49:50;;;;;;;11.75;9.15;;;;;;;19.56;100.00;92928.28;5089030;28;20043;-77
2022/07/28 03:52:17;;;;;;;11.07;8.25;;;;;;;19.51;100.00;92908.25;5088859;28;20139;-76
2022/07/28 03:54:44;;;;;;;11.07;8.10;;;;;;;19.50;100.00;92914.53;5088453;28;20040;-76
2022/07/28 03:57:11;;;;;;;11.27;7.22;;;;;;;19.45;100.00;92910.13;5088439;28;20101;-77
2022/07/28 03:59:39;;;;;;;8.75;7.10;;;;;;;19.45;100.00;92936.16;5088817;28;20089;-77
2022/07/28 04:02:06;;;;;;;9.77;7.57;;;;;;;19.36;100.00;92953.44;5089069;28;20044;-77
2022/07/28 04:04:33;;;;;;;10.02;7.50;;;;;;;19.56;100.00;92969.97;5088401;28;20493;-76
2022/07/28 04:07:00;;;;;;;11.63;7.18;;;;;;;19.56;100.00;92985.59;5088779;28;20063;-76
2022/07/28 04:09:27;;;;;;;9.90;7.40;;;;;;;19.39;100.00;92986.72;5088131;28;20504;-76
2022/07/28 04:11:53;;;;;;;11.05;7.05;;;;;;;19.47;100.00;92990.59;5088897;28;20052;-76
2022/07/28 04:14:20;;;;;;;10.02;6.13;;;;;;;19.41;100.00;92996.88;5088585;28;20044;-76
2022/07/28 04:16:48;;;;;;;8.85;7.07;;;;;;;19.51;100.00;93012.47;5088251;28;20044;-76
2022/07/28 04:19:15;;;;;;;9.02;6.88;;;;;;;19.52;100.00;93023.66;5088539;28;20047;-76
2022/07/28 04:21:42;;;;;;;11.77;8.10;;;;;;;19.54;100.00;93035.38;5088330;28;20105;-77
2022/07/28 04:24:10;;;;;;;9.05;7.25;;;;;;;19.66;100.00;93029.06;5088311;28;20183;-77
2022/07/28 04:26:37;;;;;;;17.10;9.52;;;;;;;19.26;100.00;93016.00;5088148;28;20568;-76
2022/07/28 04:29:03;;;;;;;12.98;9.27;;;;;;;19.18;100.00;93036.34;5088082;28;20109;-76
2022/07/28 04:31:30;;;;;;;12.40;8.50;;;;;;;18.85;100.00;93019.50;5088453;28;20447;-77
2022/07/28 04:33:59;;;;;;;12.27;8.25;;;;;;;18.65;100.00;93013.34;5088254;28;20040;-78
2022/07/28 04:36:26;;;;;;;10.13;7.22;;;;;;;18.36;100.00;92996.50;5088170;28;20143;-80
2022/07/28 04:38:53;;;;;;;11.10;8.15;;;;;;;18.40;100.00;93014.94;5088585;28;20109;-80
2022/07/28 04:41:19;;;;;;;11.30;7.88;;;;;;;18.11;100.00;93020.69;5088818;28;20501;-80
2022/07/28 04:43:46;;;;;;;12.85;9.55;;;;;;;18.07;100.00;93027.44;5091969;28;20104;-78
2022/07/28 04:46:13;;;;;;;10.65;8.30;;;;;;;18.13;100.00;93027.19;5092968;28;20486;-78
2022/07/28 04:48:40;;;;;;;10.77;8.40;;;;;;;18.08;100.00;93019.41;5094368;28;20051;-78
2022/07/28 04:51:08;;;;;;;15.60;10.55;;;;;;;18.32;100.00;93025.88;5092433;28;20416;-77
2022/07/28 04:53:35;;;;;;;13.38;10.27;;;;;;;18.50;100.00;93034.94;5093989;28;20554;-80
2022/07/28 04:56:02;;;;;;;15.35;12.35;;;;;;;18.43;100.00;93046.41;5092807;28;20048;-80
2022/07/28 04:58:29;;;;;;;15.85;12.07;;;;;;;18.62;100.00;93061.47;5094457;28;20051;-79
2022/07/28 05:00:55;;;;;;;13.30;10.88;;;;;;;18.87;100.00;93088.47;5092228;28;20044;-79
2022/07/28 05:03:22;;;;;;;22.13;14.40;;;;;;;19.02;100.00;93082.44;5092069;28;20451;-77
2022/07/28 05:05:49;;;;;;;16.13;11.70;;;;;;;19.08;100.00;93081.41;5091685;28;20599;-79
2022/07/28 05:08:17;;;;;;;14.20;11.40;;;;;;;19.17;100.00;93099.84;5091762;28;20101;-80
2022/07/28 05:10:44;;;;;;;14.50;11.38;;;;;;;19.34;100.00;93090.94;5091745;28;20140;-78
2022/07/28 05:13:11;;;;;;;14.73;11.73;;;;;;;19.17;100.00;93067.84;5091760;28;20123;-79
2022/07/28 05:15:37;;;;;;;18.05;13.40;;;;;;;18.50;100.00;93061.75;5091569;28;20110;-79
2022/07/28 05:18:04;;;;;;;28.02;16.45;;;;;;;18.39;100.00;93068.00;5091198;28;20133;-79
2022/07/28 05:20:32;;;;;;;22.95;15.38;;;;;;;18.58;100.00;93059.63;5091696;28;20512;-80
2022/07/28 05:22:59;;;;;;;19.83;15.35;;;;;;;18.61;100.00;93059.88;5091590;28;20028;-79
2022/07/28 05:25:27;;;;;;;22.50;16.48;;;;;;;18.75;100.00;93064.56;5091041;28;20364;-79
2022/07/28 05:27:54;;;;;;;24.52;16.33;;;;;;;19.02;100.00;93058.25;5091132;28;20493;-78
2022/07/28 05:30:21;;;;;;;19.67;14.38;;;;;;;19.21;100.00;93046.19;5091466;28;20763;-78
2022/07/28 05:32:49;;;;;;;18.70;15.15;;;;;;;19.36;100.00;93047.19;5091496;28;20044;-77
2022/07/28 05:35:16;;;;;;;21.75;14.25;;;;;;;19.55;100.00;93067.41;5091353;28;20080;-78
2022/07/28 05:37:43;;;;;;;19.67;13.10;;;;;;;19.93;100.00;93075.50;5090713;28;20048;-77
2022/07/28 05:40:12;;;;;;;18.55;13.82;;;;;;;20.19;100.00;93059.72;5091170;28;20074;-77
2022/07/28 05:42:42;;;;;;;15.23;12.20;;;;;;;20.45;100.00;93050.91;5091146;28;20040;-78
2022/07/28 05:45:09;;;;;;;17.38;12.10;;;;;;;20.67;100.00;93047.81;5091044;28;20101;-77
2022/07/28 05:47:45;;;;;;;18.40;12.20;;;;;;;20.97;100.00;93053.78;5096907;28;20040;-78
2022/07/28 05:50:13;;;;;;;13.75;10.68;;;;;;;21.11;100.00;93046.06;5099050;28;20048;-77
2022/07/28 05:52:40;;;;;;;16.27;11.43;;;;;;;21.28;100.00;93056.03;5105265;28;20085;-77
2022/07/28 05:55:08;;;;;;;14.65;9.82;;;;;;;21.44;100.00;93061.84;5102379;28;20055;-77
2022/07/28 05:57:34;;;;;;;14.93;10.38;;;;;;;21.51;100.00;93058.13;5096885;28;20519;-78
2022/07/28 06:00:05;;;;;;;12.15;9.20;;;;;;;21.47;100.00;93056.06;5102221;28;20040;-77
2022/07/28 06:02:32;;;;;;;14.18;8.82;;;;;;;21.45;100.00;93062.63;5105182;28;20086;-75
2022/07/28 06:04:58;;;;;;;15.07;9.63;;;;;;;21.15;100.00;93061.94;5099202;28;20051;-79
2022/07/28 06:07:25;;;;;;;11.07;8.63;;;;;;;21.35;100.00;93056.47;5096528;28;20568;-77
2022/07/28 06:09:52;;;;;;;14.82;10.23;;;;;;;21.38;100.00;93060.34;5104611;28;20094;-78
2022/07/28 06:12:19;;;;;;;14.32;10.80;;;;;;;21.16;100.00;93053.81;5100901;28;20051;-78
2022/07/28 06:14:45;;;;;;;15.73;10.70;;;;;;;21.52;100.00;93054.44;5102969;28;20044;-79
2022/07/28 06:17:14;;;;;;;16.30;10.68;;;;;;;21.77;100.00;93058.56;5091992;28;20056;-78
2022/07/28 06:19:41;;;;;;;14.57;10.80;;;;;;;22.09;100.00;93064.13;5105201;28;20560;-78
2022/07/28 06:22:08;;;;;;;20.30;11.18;;;;;;;22.28;100.00;93077.94;5097395;28;20044;-78
2022/07/28 06:24:35;;;;;;;22.52;12.48;;;;;;;22.48;100.00;93056.94;5090609;28;20493;-78
2022/07/28 06:27:02;;;;;;;19.88;11.90;;;;;;;22.69;100.00;93071.25;5104749;28;20562;-78
2022/07/28 06:29:30;;;;;;;19.70;12.15;;;;;;;22.59;100.00;93075.91;5101999;28;20047;-78
2022/07/28 06:31:57;;;;;;;17.17;10.85;;;;;;;22.98;100.00;93079.16;5096646;28;20039;-77
2022/07/28 06:34:25;;;;;;;15.40;9.52;;;;;;;23.30;100.00;93074.88;5101516;28;20044;-77
2022/07/28 06:36:52;;;;;;;17.95;10.48;;;;;;;23.58;100.00;93080.09;5104800;28;20061;-78
2022/07/28 06:39:18;;;;;;;17.52;10.52;;;;;;;23.70;100.00;93080.38;5090648;28;20100;-78
2022/07/28 06:41:45;;;;;;;16.95;9.80;;;;;;;23.91;100.00;93079.94;5104821;28;20054;-77
2022/07/28 06:44:12;;;;;;;17.55;9.80;;;;;;;24.07;100.00;93084.84;5104729;28;20105;-78
2022/07/28 06:46:39;;;;;;;16.02;9.00;;;;;;;24.21;100.00;93087.44;5091486;28;20044;-78
2022/07/28 06:49:06;;;;;;;11.88;8.90;;;;;;;24.36;100.00;93073.16;5104293;28;20493;-78
2022/07/28 06:51:34;;;;;;;16.77;10.68;;;;;;;24.23;100.00;93088.69;5099945;28;20047;-79
2022/07/28 06:54:00;;;;;;;16.05;10.88;;;;;;;24.32;100.00;93083.50;5097636;28;20557;-79
2022/07/28 06:56:27;;;;;;;15.65;10.55;;;;;;;24.32;100.00;93077.47;5100788;28;20530;-79
2022/07/28 06:58:54;;;;;;;16.25;10.57;;;;;;;24.22;100.00;93083.72;5097814;28;20044;-78
2022/07/28 07:01:21;;;;;;;13.40;9.98;;;;;;;23.52;100.00;93074.22;5101472;28;20105;-78
2022/07/28 07:03:48;;;;;;;13.45;10.32;;;;;;;23.84;100.00;93080.34;5099232;28;20097;-78
2022/07/28 07:06:14;;;;;;;17.48;10.48;;;;;;;24.17;100.00;93091.72;5100473;28;20505;-78
2022/07/28 07:08:42;;;;;;;15.75;10.32;;;;;;;24.45;100.00;93091.59;5100172;28;20039;-79
2022/07/28 07:11:10;;;;;;;16.60;10.48;;;;;;;24.72;100.00;93098.56;5100116;28;20039;-79
2022/07/28 07:13:37;;;;;;;15.02;9.98;;;;;;;24.68;100.00;93102.84;5101509;28;20516;-78
2022/07/28 07:16:04;;;;;;;18.25;11.20;;;;;;;24.70;100.00;93098.06;5100137;28;20511;-78
2022/07/28 07:18:31;;;;;;;16.02;10.05;;;;;;;24.50;100.00;93099.34;5097962;28;20386;-78
2022/07/28 07:20:58;;;;;;;17.30;14.00;;;;;;;24.26;100.00;93109.06;5099528;28;20386;-78
2022/07/28 07:23:25;;;;;;;14.48;9.98;;;;;;;24.41;100.00;93112.44;5096273;28;20047;-79
2022/07/28 07:25:53;;;;;;;21.75;11.20;;;;;;;24.68;100.00;93102.84;5098340;28;20055;-78
2022/07/28 07:28:20;;;;;;;15.65;9.93;;;;;;;24.93;100.00;93116.44;5096698;28;20050;-79
2022/07/28 07:30:47;;;;;;;16.65;10.95;;;;;;;25.15;100.00;93123.50;5097486;28;20448;-78
2022/07/28 07:33:14;;;;;;;17.95;11.55;;;;;;;25.35;98.90;93131.91;5098855;28;20052;-79
2022/07/28 07:35:41;;;;;;;22.15;13.93;;;;;;;25.47;97.11;93137.34;5098346;28;20048;-78
2022/07/28 07:38:07;;;;;;;20.88;12.85;;;;;;;25.61;96.63;93139.13;5096702;28;20443;-78
2022/07/28 07:40:34;;;;;;;23.70;12.70;;;;;;;25.72;96.59;93144.88;5098266;28;20500;-78
2022/07/28 07:43:02;;;;;;;25.20;12.43;;;;;;;25.68;95.41;93142.06;5094530;28;20040;-78
2022/07/28 07:45:29;;;;;;;21.60;14.50;;;;;;;25.74;95.06;93147.97;5099100;28;20044;-78
2022/07/28 07:47:56;;;;;;;19.15;11.93;;;;;;;25.77;94.80;93149.22;5099732;28;20427;-78
2022/07/28 07:50:23;;;;;;;28.88;15.13;;;;;;;25.86;92.94;93150.00;5097639;28;20088;-78
2022/07/28 07:52:50;;;;;;;25.45;13.98;;;;;;;25.88;92.47;93140.72;5099498;28;20043;-78
2022/07/28 07:55:17;;;;;;;26.10;13.40;;;;;;;25.83;92.06;93135.59;5098162;28;20496;-79
2022/07/28 07:57:43;;;;;;;28.50;16.10;;;;;;;25.35;92.60;93142.41;5098445;28;20606;-80
2022/07/28 08:00:12;;;;;;;23.13;13.60;;;;;;;25.43;95.75;93141.69;5093290;28;20048;-78
2022/07/28 08:02:40;;;;;;;24.60;13.13;;;;;;;25.51;96.55;93131.50;5095187;28;20052;-79
2022/07/28 08:05:07;;;;;;;21.15;11.48;;;;;;;25.51;94.42;93129.66;5098037;28;20047;-78
2022/07/28 08:07:35;;;;;;;21.83;11.98;;;;;;;25.70;94.45;93139.94;5098609;28;20536;-79
2022/07/28 08:10:02;;;;;;;19.55;11.20;;;;;;;25.76;92.75;93151.06;5097338;28;20078;-78
2022/07/28 08:12:29;;;;;;;15.98;10.55;;;;;;;25.71;92.85;93148.59;5099679;28;20133;-79
2022/07/28 08:14:55;;;;;;;13.10;9.23;;;;;;;25.32;91.44;93156.19;5097444;28;20054;-78
2022/07/28 08:17:24;;;;;;;11.73;8.68;;;;;;;25.13;91.70;93149.28;5100873;28;20047;-80
2022/07/28 08:19:51;;;;;;;14.70;9.85;;;;;;;25.26;93.72;93149.53;5103424;28;20423;-79
2022/07/28 08:22:17;;;;;;;12.90;9.25;;;;;;;25.38;93.23;93151.56;5103173;28;20057;-79
2022/07/28 08:24:44;;;;;;;13.48;9.35;;;;;;;25.56;94.08;93140.06;5102540;28;20040;-79
2022/07/28 08:27:11;;;;;;;14.85;9.93;;;;;;;25.76;92.22;93143.19;5101062;28;20039;-80
2022/07/28 08:29:38;;;;;;;13.80;8.48;;;;;;;25.87;92.23;93152.31;5101015;28;20054;-78
2022/07/28 08:32:05;;;;;;;14.02;8.60;;;;;;;25.92;91.59;93155.91;5096514;28;20048;-79
2022/07/28 08:34:33;;;;;;;12.55;8.75;;;;;;;26.00;89.79;93155.13;5104625;28;20051;-78
2022/07/28 08:37:01;;;;;;;13.05;8.48;;;;;;;26.07;88.88;93162.56;5095006;28;20048;-79
2022/07/28 08:39:28;;;;;;;10.80;8.40;;;;;;;26.05;88.90;93159.47;5112903;28;20550;-79
2022/07/28 08:42:01;;;;;;;14.25;8.25;;;;;;;26.05;89.18;93172.63;5099852;28;20048;-79
2022/07/28 08:44:37;;;;;;;14.07;9.38;;;;;;;26.09;90.40;93163.81;5096092;28;20064;-80
2022/07/28 08:47:08;;;;;;;13.98;8.82;;;;;;;26.11;90.33;93164.25;5093698;28;20052;-80
2022/07/28 08:49:38;;;;;;;14.38;9.05;;;;;;;26.22;90.09;93163.97;5105439;28;20048;-81
2022/07/28 08:52:07;;;;;;;13.30;9.00;;;;;;;26.20;89.84;93163.50;5107047;28;20097;-80
2022/07/28 08:54:34;;;;;;;14.45;10.38;;;;;;;26.11;90.89;93163.50;5099234;28;20050;-80
2022/07/28 08:57:02;;;;;;;13.50;10.18;;;;;;;26.12;90.92;93165.84;5100119;28;20451;-79
2022/07/28 09:00:06;;;;;;;14.85;9.27;;;;;;;26.07;90.78;93163.34;5106914;28;20040;-79
2022/07/28 09:02:37;;;;;;;11.23;9.02;;;;;;;26.05;89.03;93162.88;5106727;28;20040;-79
2022/07/28 09:05:07;;;;;;;13.80;9.25;;;;;;;26.05;88.43;93154.22;5101611;28;20052;-79
2022/07/28 09:07:36;;;;;;;18.65;9.55;;;;;;;25.89;91.22;93152.03;5097917;28;20044;-80
2022/07/28 09:10:04;;;;;;;14.80;9.35;;;;;;;25.78;89.54;93150.78;5104497;28;20806;-79
2022/07/28 09:12:33;;;;;;;14.85;9.27;;;;;;;25.41;92.22;93146.47;5106437;28;20047;-80
2022/07/28 09:15:01;;;;;;;16.35;9.88;;;;;;;25.12;95.34;93139.09;5099116;28;20487;-80
2022/07/28 09:17:28;;;;;;;18.80;10.07;;;;;;;24.81;95.98;93146.66;5099113;28;20454;-80
2022/07/28 09:19:55;;;;;;;14.50;10.32;;;;;;;24.95;97.64;93132.69;5106435;28;20543;-80
2022/07/28 09:22:23;;;;;;;14.55;10.45;;;;;;;24.67;99.29;93136.22;5098881;28;20040;-79
2022/07/28 09:24:50;;;;;;;15.70;9.85;;;;;;;24.39;98.14;93131.09;5091647;28;20093;-79
2022/07/28 09:27:16;;;;;;;15.23;11.23;;;;;;;24.38;99.73;93136.63;5099849;28;20044;-79
2022/07/28 09:29:48;;;;;;;14.25;10.38;;;;;;;24.54;99.34;93143.09;5097240;28;20488;-79
2022/07/28 09:32:20;;;;;;;18.40;11.70;;;;;;;25.00;99.90;93150.16;5100129;28;20055;-79
2022/07/28 09:34:49;;;;;;;18.27;11.52;;;;;;;25.00;96.18;93142.28;5093664;28;20425;-79
2022/07/28 09:37:20;;;;;;;16.77;11.00;;;;;;;25.42;96.75;93152.50;5103329;28;20100;-79
2022/07/28 09:39:49;;;;;;;17.20;11.52;;;;;;;25.98;92.40;93157.28;5098404;28;20048;-79
2022/07/28 09:42:17;;;;;;;18.17;11.55;;;;;;;26.50;91.43;93169.72;5094294;28;20551;-79
2022/07/28 09:44:44;;;;;;;19.10;10.75;;;;;;;26.92;86.54;93171.88;5091256;28;20047;-79
2022/07/28 09:47:22;;;;;;;15.52;10.52;;;;;;;27.16;84.87;93167.16;5092436;28;20040;-80
2022/07/28 09:49:49;;;;;;;18.15;11.15;;;;;;;27.46;87.01;93165.31;5106309;28;20047;-80
2022/07/28 09:52:27;;;;;;;23.73;11.23;;;;;;;27.69;86.25;93165.09;5102167;28;20047;-81
2022/07/28 09:55:02;;;;;;;19.80;12.10;;;;;;;27.90;83.54;93160.94;5097744;28;20086;-80
2022/07/28 09:57:30;;;;;;;20.25;12.50;;;;;;;27.70;82.92;93152.66;5100520;28;20048;-80
2022/07/28 09:59:57;;;;;;;20.92;13.30;;;;;;;27.40;83.56;93166.56;5105682;28;20036;-80
2022/07/28 10:02:24;;;;;;;15.45;9.60;;;;;;;27.06;88.61;93158.50;5101566;28;20100;-79
2022/07/28 10:04:52;;;;;;;16.05;9.77;;;;;;;27.19;87.57;93164.66;5097562;28;20055;-79
2022/07/28 10:07:19;;;;;;;14.45;9.65;;;;;;;27.16;88.45;93159.25;5112080;28;20043;-80
2022/07/28 10:09:56;;;;;;;14.57;9.95;;;;;;;27.18;88.75;93163.09;5097074;28;20044;-80
2022/07/28 10:12:26;;;;;;;13.77;9.45;;;;;;;26.89;89.07;93163.78;5104016;28;20040;-79
2022/07/28 10:14:54;;;;;;;13.98;9.60;;;;;;;27.01;87.78;93168.41;5105429;28;20051;-79
2022/07/28 10:17:25;;;;;;;11.85;9.68;;;;;;;26.85;88.57;93152.31;5098181;28;20070;-77
2022/07/28 10:19:53;;;;;;;11.95;9.05;;;;;;;26.71;88.24;93158.56;5097285;28;20058;-80
2022/07/28 10:22:23;;;;;;;12.60;9.38;;;;;;;26.75;89.04;93156.81;5097446;28;20048;-80
2022/07/28 10:24:52;;;;;;;13.20;9.23;;;;;;;26.88;89.72;93149.06;5093235;28;20035;-80
2022/07/28 10:27:20;;;;;;;13.07;8.73;;;;;;;27.08;87.76;93137.09;5100137;28;20044;-79
2022/07/28 10:29:53;;;;;;;15.05;9.52;;;;;;;27.29;88.77;93149.56;5105453;28;20043;-80
2022/07/28 10:32:20;;;;;;;12.00;9.13;;;;;;;27.57;86.21;93157.03;5100311;28;20088;-79
2022/07/28 10:34:52;;;;;;;11.68;8.88;;;;;;;27.83;84.91;93159.59;5096320;28;20048;-79
2022/07/28 10:37:21;;;;;;;12.88;8.77;;;;;;;28.06;83.24;93145.28;5101974;28;20051;-80
2022/07/28 10:39:53;;;;;;;12.27;8.25;;;;;;;28.05;81.15;93141.88;5095708;28;20097;-80
2022/07/28 10:42:20;;;;;;;16.92;9.23;;;;;;;27.96;83.42;93141.19;5103426;28;20051;-80
2022/07/28 10:44:51;;;;;;;11.90;9.15;;;;;;;27.63;84.23;93126.78;5104836;28;20047;-79
2022/07/28 10:47:20;;;;;;;12.32;8.65;;;;;;;26.89;86.78;93122.38;5096575;28;20085;-83
2022/07/28 10:49:47;;;;;;;11.60;8.05;;;;;;;26.47;88.04;93119.53;5101311;28;20043;-78
2022/07/28 10:52:17;;;;;;;12.32;8.77;;;;;;;27.01;86.75;93123.63;5104567;28;20150;-77
2022/07/28 10:54:50;;;;;;;14.95;9.40;;;;;;;27.15;84.91;93126.81;5098118;28;20040;-78
2022/07/28 10:57:17;;;;;;;12.75;9.02;;;;;;;27.52;85.99;93125.56;5096253;28;20517;-78
2022/07/28 10:59:58;;;;;;;14.43;9.48;;;;;;;27.38;84.32;93123.94;5103487;28;20757;-79
2022/07/28 11:02:52;;;;;;;13.52;9.00;;;;;;;27.55;79.80;93138.13;5104432;28;20135;-78
2022/07/28 11:05:33;;;;;;;12.13;8.52;;;;;;;27.42;82.42;93126.72;5101595;28;20071;-78
2022/07/28 11:08:02;;;;;;;10.73;8.55;;;;;;;28.11;82.92;93122.13;5096270;28;20054;-79
2022/07/28 11:10:29;;;;;;;12.95;8.55;;;;;;;28.11;80.10;93116.06;5110456;28;20096;-78
2022/07/28 11:12:57;;;;;;;12.68;8.82;;;;;;;28.54;77.85;93111.50;5091721;28;20497;-78
2022/07/28 11:15:31;;;;;;;12.13;8.27;;;;;;;28.62;75.01;93100.09;5100667;28;20108;-80
2022/07/28 11:18:02;;;;;;;10.35;8.50;;;;;;;29.05;73.34;93099.97;5092395;28;20054;-80
2022/07/28 11:21:06;;;;;;;10.95;8.30;;;;;;;29.69;75.33;93102.28;5103439;28;20044;-80
2022/07/28 11:23:55;;;;;;;9.57;7.78;;;;;;;29.50;70.22;93076.41;5090217;28;20124;-80
2022/07/28 11:26:38;;;;;;;9.70;7.10;;;;;;;29.66;71.50;93082.56;5089756;28;20052;-79
2022/07/28 11:29:15;;;;;;;10.13;8.00;;;;;;;30.18;68.63;93082.13;5087805;28;20105;-79
2022/07/28 11:32:01;;;;;;;10.30;8.02;;;;;;;30.04;65.08;93083.25;5088558;28;20566;-81
2022/07/28 11:34:47;;;;;;;8.77;6.28;;;;;;;30.36;61.78;93075.41;5089271;28;20055;-78